EGLL/LHR METAR and TAF weather

Enter ICAO airport designator
Station Type Date Time Source
EGLL METAR 2018/07/21 03:50 UTC NOAA

EGLL 210350Z AUTO 27004KT 6000 NCD 16/15 Q1013 NOSIG


Station Type Date Time Source
EGLL Decoded METAR 2018/07/21 03:50 UTC NOAA

London / Heathrow Airport, United Kingdom (EGLL) 51-29N 000-27W 0M
Jul 20, 2018 - 11:50 PM EDT / 2018.07.21 0350 UTC
Wind: from the W (270 degrees) at 5 MPH (4 KT):0
Visibility: 3 mile(s):0
Temperature: 60 F (16 C)
Dew Point: 59 F (15 C)
Relative Humidity: 93%
Pressure (altimeter): 29.91 in. Hg (1013 hPa)
ob: EGLL 210350Z AUTO 27004KT 6000 NCD 16/15 Q1013 NOSIG
cycle: 4

Station Type Date Time Source
EGLL TAF 2018/07/20 18:15 UTC NOAA

TAF TAF EGLL 201702Z 2018/2124 17010KT 9999 FEW045
BECMG 2018/2021 23005KT PROB30
TEMPO 2018/2022 3500 +TSRA PROB30
TEMPO 2022/2103 7000 SHRA PROB30 2103/2108 4000 BR BKN008


Example: see airport list